sensor_id;sensor_type;location;lat;lon;timestamp;pressure;altitude;pressure_sealevel;temperature;humidity
64294;BME280;50636;45.596;5.258;2023-02-03T00:00:35;100420.38;;;7.93;57.29
64294;BME280;50636;45.596;5.258;2023-02-03T00:03:01;100423.53;;;7.87;57.96
64294;BME280;50636;45.596;5.258;2023-02-03T00:05:27;100419.97;;;7.88;57.83
64294;BME280;50636;45.596;5.258;2023-02-03T00:07:53;100432.22;;;7.68;57.97
64294;BME280;50636;45.596;5.258;2023-02-03T00:10:19;100423.44;;;7.59;58.14
64294;BME280;50636;45.596;5.258;2023-02-03T00:12:50;100434.56;;;7.51;58.77
64294;BME280;50636;45.596;5.258;2023-02-03T00:15:17;100429.47;;;7.69;59.24
64294;BME280;50636;45.596;5.258;2023-02-03T00:17:43;100426.97;;;7.97;58.81
64294;BME280;50636;45.596;5.258;2023-02-03T00:20:09;100424.34;;;7.97;58.46
64294;BME280;50636;45.596;5.258;2023-02-03T00:22:35;100422.69;;;7.96;58.11
64294;BME280;50636;45.596;5.258;2023-02-03T00:25:01;100423.56;;;7.77;58.00
64294;BME280;50636;45.596;5.258;2023-02-03T00:27:27;100426.72;;;7.61;58.70
64294;BME280;50636;45.596;5.258;2023-02-03T00:29:52;100426.47;;;7.45;59.58
64294;BME280;50636;45.596;5.258;2023-02-03T00:32:18;100430.69;;;7.26;59.87
64294;BME280;50636;45.596;5.258;2023-02-03T00:34:44;100419.69;;;7.32;60.50
64294;BME280;50636;45.596;5.258;2023-02-03T00:37:11;100418.75;;;7.53;61.39
64294;BME280;50636;45.596;5.258;2023-02-03T00:39:37;100412.13;;;7.78;60.63
64294;BME280;50636;45.596;5.258;2023-02-03T00:42:04;100409.94;;;7.83;59.66
64294;BME280;50636;45.596;5.258;2023-02-03T00:44:30;100403.59;;;7.86;59.95
64294;BME280;50636;45.596;5.258;2023-02-03T00:46:56;100415.69;;;7.87;59.59
64294;BME280;50636;45.596;5.258;2023-02-03T00:49:21;100408.41;;;7.80;58.86
64294;BME280;50636;45.596;5.258;2023-02-03T00:51:47;100413.53;;;7.63;59.11
64294;BME280;50636;45.596;5.258;2023-02-03T00:54:13;100407.88;;;7.57;60.40
64294;BME280;50636;45.596;5.258;2023-02-03T00:56:39;100415.31;;;7.62;60.24
64294;BME280;50636;45.596;5.258;2023-02-03T00:59:04;100413.25;;;7.66;60.57
64294;BME280;50636;45.596;5.258;2023-02-03T01:01:32;100404.03;;;7.81;60.05
64294;BME280;50636;45.596;5.258;2023-02-03T01:03:58;100414.16;;;7.94;60.22
64294;BME280;50636;45.596;5.258;2023-02-03T01:06:24;100405.59;;;8.11;59.40
64294;BME280;50636;45.596;5.258;2023-02-03T01:08:50;100401.53;;;7.89;59.17
64294;BME280;50636;45.596;5.258;2023-02-03T01:11:18;100405.53;;;7.64;60.43
64294;BME280;50636;45.596;5.258;2023-02-03T01:13:44;100406.91;;;7.68;60.27
64294;BME280;50636;45.596;5.258;2023-02-03T01:16:12;100406.34;;;7.84;60.93
64294;BME280;50636;45.596;5.258;2023-02-03T01:18:38;100407.69;;;7.98;60.29
64294;BME280;50636;45.596;5.258;2023-02-03T01:21:10;100404.53;;;7.94;60.79
64294;BME280;50636;45.596;5.258;2023-02-03T01:23:36;100412.81;;;7.90;60.66
64294;BME280;50636;45.596;5.258;2023-02-03T01:26:10;100405.91;;;7.98;61.07
64294;BME280;50636;45.596;5.258;2023-02-03T01:28:36;100405.94;;;8.36;61.28
64294;BME280;50636;45.596;5.258;2023-02-03T01:31:13;100409.63;;;8.80;61.02
64294;BME280;50636;45.596;5.258;2023-02-03T01:33:39;100416.09;;;9.04;60.48
64294;BME280;50636;45.596;5.258;2023-02-03T01:36:09;100411.25;;;9.27;59.38
64294;BME280;50636;45.596;5.258;2023-02-03T01:38:36;100411.94;;;9.29;58.18
64294;BME280;50636;45.596;5.258;2023-02-03T01:41:02;100406.00;;;9.27;57.64
64294;BME280;50636;45.596;5.258;2023-02-03T01:43:34;100406.19;;;9.26;58.00
64294;BME280;50636;45.596;5.258;2023-02-03T01:46:03;100411.94;;;9.29;57.82
64294;BME280;50636;45.596;5.258;2023-02-03T01:48:31;100405.34;;;9.25;57.61
64294;BME280;50636;45.596;5.258;2023-02-03T01:51:00;100402.88;;;9.24;57.91
64294;BME280;50636;45.596;5.258;2023-02-03T01:53:26;100398.06;;;9.19;57.42
64294;BME280;50636;45.596;5.258;2023-02-03T01:55:52;100402.13;;;8.95;58.22
64294;BME280;50636;45.596;5.258;2023-02-03T01:58:30;100400.59;;;8.93;58.97
64294;BME280;50636;45.596;5.258;2023-02-03T02:00:57;100397.09;;;9.02;59.02
64294;BME280;50636;45.596;5.258;2023-02-03T02:03:30;100401.16;;;9.14;58.94
64294;BME280;50636;45.596;5.258;2023-02-03T02:06:07;100400.09;;;9.25;59.22
64294;BME280;50636;45.596;5.258;2023-02-03T02:08:33;100401.09;;;9.42;58.78
64294;BME280;50636;45.596;5.258;2023-02-03T02:10:59;100396.88;;;9.49;58.35
64294;BME280;50636;45.596;5.258;2023-02-03T02:13:26;100399.97;;;9.45;58.16
64294;BME280;50636;45.596;5.258;2023-02-03T02:32:17;100398.69;;;9.49;56.94
64294;BME280;50636;45.596;5.258;2023-02-03T02:38:34;100397.66;;;9.24;57.36
64294;BME280;50636;45.596;5.258;2023-02-03T02:46:18;100397.94;;;8.75;57.95
64294;BME280;50636;45.596;5.258;2023-02-03T02:48:54;100397.94;;;8.75;57.60
64294;BME280;50636;45.596;5.258;2023-02-03T02:51:22;100399.50;;;8.68;58.04
64294;BME280;50636;45.596;5.258;2023-02-03T02:53:53;100401.81;;;8.71;58.44
64294;BME280;50636;45.596;5.258;2023-02-03T02:56:21;100403.22;;;8.93;58.61
64294;BME280;50636;45.596;5.258;2023-02-03T02:58:49;100413.53;;;8.94;58.50
64294;BME280;50636;45.596;5.258;2023-02-03T03:01:16;100411.75;;;8.95;58.27
64294;BME280;50636;45.596;5.258;2023-02-03T03:03:43;100413.09;;;8.99;58.35
64294;BME280;50636;45.596;5.258;2023-02-03T03:06:25;100406.69;;;8.93;58.19
64294;BME280;50636;45.596;5.258;2023-02-03T03:09:07;100409.44;;;8.92;58.13
64294;BME280;50636;45.596;5.258;2023-02-03T03:11:40;100408.31;;;8.94;58.56
64294;BME280;50636;45.596;5.258;2023-02-03T03:14:09;100399.81;;;9.10;58.84
64294;BME280;50636;45.596;5.258;2023-02-03T03:16:38;100402.38;;;9.38;57.83
64294;BME280;50636;45.596;5.258;2023-02-03T03:19:09;100400.56;;;9.38;57.76
64294;BME280;50636;45.596;5.258;2023-02-03T03:21:40;100404.00;;;9.39;57.30
64294;BME280;50636;45.596;5.258;2023-02-03T03:24:17;100402.13;;;9.31;57.55
64294;BME280;50636;45.596;5.258;2023-02-03T03:32:05;100412.44;;;9.15;58.15
64294;BME280;50636;45.596;5.258;2023-02-03T03:34:31;100413.25;;;9.15;58.00
64294;BME280;50636;45.596;5.258;2023-02-03T03:39:46;100413.44;;;9.32;56.94
64294;BME280;50636;45.596;5.258;2023-02-03T03:44:55;100409.31;;;9.47;58.17
64294;BME280;50636;45.596;5.258;2023-02-03T03:47:37;100416.56;;;9.71;57.59
64294;BME280;50636;45.596;5.258;2023-02-03T03:50:07;100412.97;;;9.72;57.27
64294;BME280;50636;45.596;5.258;2023-02-03T03:52:35;100406.75;;;9.73;56.86
64294;BME280;50636;45.596;5.258;2023-02-03T03:55:07;100407.88;;;9.53;56.31
64294;BME280;50636;45.596;5.258;2023-02-03T03:57:39;100413.94;;;9.35;56.63
64294;BME280;50636;45.596;5.258;2023-02-03T04:00:09;100404.31;;;9.18;57.12
64294;BME280;50636;45.596;5.258;2023-02-03T04:02:38;100408.13;;;9.06;57.49
64294;BME280;50636;45.596;5.258;2023-02-03T04:05:05;100412.81;;;9.02;57.49
64294;BME280;50636;45.596;5.258;2023-02-03T04:07:43;100409.44;;;8.92;57.42
64294;BME280;50636;45.596;5.258;2023-02-03T04:10:34;100403.00;;;8.49;58.00
64294;BME280;50636;45.596;5.258;2023-02-03T04:13:00;100403.81;;;8.12;59.01
64294;BME280;50636;45.596;5.258;2023-02-03T04:15:27;100412.34;;;8.04;59.37
64294;BME280;50636;45.596;5.258;2023-02-03T04:17:53;100401.91;;;8.04;59.79
64294;BME280;50636;45.596;5.258;2023-02-03T04:20:21;100407.09;;;8.14;59.92
64294;BME280;50636;45.596;5.258;2023-02-03T04:22:47;100397.47;;;8.05;59.79
64294;BME280;50636;45.596;5.258;2023-02-03T04:25:13;100398.91;;;7.99;59.63
64294;BME280;50636;45.596;5.258;2023-02-03T04:27:38;100409.63;;;7.86;59.92
64294;BME280;50636;45.596;5.258;2023-02-03T04:30:04;100409.25;;;7.81;60.12
64294;BME280;50636;45.596;5.258;2023-02-03T04:32:30;100412.13;;;7.78;60.28
64294;BME280;50636;45.596;5.258;2023-02-03T04:34:57;100404.53;;;7.94;61.41
64294;BME280;50636;45.596;5.258;2023-02-03T04:37:23;100405.59;;;8.21;60.43
64294;BME280;50636;45.596;5.258;2023-02-03T04:39:54;100402.31;;;8.09;60.03
64294;BME280;50636;45.596;5.258;2023-02-03T04:42:22;100411.06;;;7.71;60.30
64294;BME280;50636;45.596;5.258;2023-02-03T04:44:48;100416.94;;;7.34;60.12
64294;BME280;50636;45.596;5.258;2023-02-03T04:47:15;100415.94;;;6.96;61.01
64294;BME280;50636;45.596;5.258;2023-02-03T04:49:41;100408.59;;;6.80;62.34
64294;BME280;50636;45.596;5.258;2023-02-03T04:52:07;100410.88;;;6.64;62.39
64294;BME280;50636;45.596;5.258;2023-02-03T04:54:32;100410.31;;;6.50;63.40
64294;BME280;50636;45.596;5.258;2023-02-03T04:56:58;100403.34;;;6.30;62.70
64294;BME280;50636;45.596;5.258;2023-02-03T04:59:24;100404.13;;;6.20;64.16
64294;BME280;50636;45.596;5.258;2023-02-03T05:01:50;100391.81;;;6.02;64.12
64294;BME280;50636;45.596;5.258;2023-02-03T05:04:15;100384.44;;;5.86;64.23
64294;BME280;50636;45.596;5.258;2023-02-03T05:06:41;100386.94;;;5.55;66.00
64294;BME280;50636;45.596;5.258;2023-02-03T05:09:06;100381.47;;;5.37;66.59
64294;BME280;50636;45.596;5.258;2023-02-03T05:11:32;100383.41;;;5.24;67.02
64294;BME280;50636;45.596;5.258;2023-02-03T05:13:58;100384.03;;;5.16;67.73
64294;BME280;50636;45.596;5.258;2023-02-03T05:16:24;100378.41;;;4.99;68.24
64294;BME280;50636;45.596;5.258;2023-02-03T05:18:49;100378.53;;;4.98;67.68
64294;BME280;50636;45.596;5.258;2023-02-03T05:21:15;100366.59;;;4.95;68.11
64294;BME280;50636;45.596;5.258;2023-02-03T05:23:41;100359.56;;;4.75;68.52
64294;BME280;50636;45.596;5.258;2023-02-03T05:26:06;100365.34;;;4.45;69.22
64294;BME280;50636;45.596;5.258;2023-02-03T05:28:32;100362.19;;;4.30;70.22
64294;BME280;50636;45.596;5.258;2023-02-03T05:30:59;100362.88;;;4.09;70.39
64294;BME280;50636;45.596;5.258;2023-02-03T05:33:25;100361.22;;;3.97;71.99
64294;BME280;50636;45.596;5.258;2023-02-03T05:35:50;100362.66;;;4.01;71.11
64294;BME280;50636;45.596;5.258;2023-02-03T05:38:16;100349.66;;;4.24;71.58
64294;BME280;50636;45.596;5.258;2023-02-03T05:40:42;100354.13;;;4.55;70.91
64294;BME280;50636;45.596;5.258;2023-02-03T05:43:27;100350.31;;;4.71;70.58
64294;BME280;50636;45.596;5.258;2023-02-03T05:45:53;100361.91;;;4.67;69.90
64294;BME280;50636;45.596;5.258;2023-02-03T05:48:19;100360.06;;;4.35;69.83
64294;BME280;50636;45.596;5.258;2023-02-03T05:50:44;100360.03;;;4.12;71.17
64294;BME280;50636;45.596;5.258;2023-02-03T05:53:10;100367.34;;;3.96;71.53
64294;BME280;50636;45.596;5.258;2023-02-03T05:55:36;100370.56;;;3.99;71.72
64294;BME280;50636;45.596;5.258;2023-02-03T05:58:03;100365.47;;;3.98;71.70
64294;BME280;50636;45.596;5.258;2023-02-03T06:00:29;100370.06;;;3.83;71.94
64294;BME280;50636;45.596;5.258;2023-02-03T06:02:57;100363.34;;;3.80;72.34
64294;BME280;50636;45.596;5.258;2023-02-03T06:05:24;100367.31;;;3.73;71.87
64294;BME280;50636;45.596;5.258;2023-02-03T06:07:50;100363.38;;;3.56;72.28
64294;BME280;50636;45.596;5.258;2023-02-03T06:10:16;100373.38;;;3.50;72.92
64294;BME280;50636;45.596;5.258;2023-02-03T06:12:42;100371.47;;;3.40;73.39
64294;BME280;50636;45.596;5.258;2023-02-03T06:15:09;100371.47;;;3.40;73.60
64294;BME280;50636;45.596;5.258;2023-02-03T06:17:34;100372.13;;;3.31;73.64
64294;BME280;50636;45.596;5.258;2023-02-03T06:20:04;100372.22;;;3.18;73.06
64294;BME280;50636;45.596;5.258;2023-02-03T06:22:30;100365.41;;;3.05;73.28
64294;BME280;50636;45.596;5.258;2023-02-03T06:24:56;100379.44;;;3.02;73.40
64294;BME280;50636;45.596;5.258;2023-02-03T06:27:21;100383.84;;;3.13;73.92
64294;BME280;50636;45.596;5.258;2023-02-03T06:29:47;100377.69;;;3.38;73.35
64294;BME280;50636;45.596;5.258;2023-02-03T06:32:13;100384.97;;;3.57;73.21
64294;BME280;50636;45.596;5.258;2023-02-03T06:34:38;100384.78;;;3.71;72.92
64294;BME280;50636;45.596;5.258;2023-02-03T06:37:04;100389.28;;;3.80;72.56
64294;BME280;50636;45.596;5.258;2023-02-03T06:39:30;100387.91;;;3.99;72.06
64294;BME280;50636;45.596;5.258;2023-02-03T06:41:55;100390.75;;;4.07;71.00
64294;BME280;50636;45.596;5.258;2023-02-03T06:44:21;100392.50;;;3.95;70.33
64294;BME280;50636;45.596;5.258;2023-02-03T06:46:47;100395.41;;;3.68;70.66
64294;BME280;50636;45.596;5.258;2023-02-03T06:49:15;100379.47;;;3.37;70.47
64294;BME280;50636;45.596;5.258;2023-02-03T06:51:42;100386.81;;;3.19;71.17
64294;BME280;50636;45.596;5.258;2023-02-03T06:54:09;100399.22;;;3.16;71.63
64294;BME280;50636;45.596;5.258;2023-02-03T06:56:34;100389.25;;;3.10;71.46
64294;BME280;50636;45.596;5.258;2023-02-03T06:59:00;100389.69;;;3.04;71.46
64294;BME280;50636;45.596;5.258;2023-02-03T07:01:26;100383.78;;;3.02;72.17
64294;BME280;50636;45.596;5.258;2023-02-03T07:03:51;100380.63;;;3.09;72.50
64294;BME280;50636;45.596;5.258;2023-02-03T07:06:17;100388.84;;;3.16;71.92
64294;BME280;50636;45.596;5.258;2023-02-03T07:08:43;100399.97;;;3.05;71.53
64294;BME280;50636;45.596;5.258;2023-02-03T07:11:09;100410.03;;;2.97;71.63
64294;BME280;50636;45.596;5.258;2023-02-03T07:13:34;100413.53;;;3.09;71.92
64294;BME280;50636;45.596;5.258;2023-02-03T07:16:00;100413.00;;;3.40;71.94
64294;BME280;50636;45.596;5.258;2023-02-03T07:18:25;100424.56;;;3.48;71.39
64294;BME280;50636;45.596;5.258;2023-02-03T07:20:51;100428.50;;;3.53;71.02
64294;BME280;50636;45.596;5.258;2023-02-03T07:23:18;100427.44;;;3.56;70.55
64294;BME280;50636;45.596;5.258;2023-02-03T07:25:44;100437.59;;;3.59;70.91
64294;BME280;50636;45.596;5.258;2023-02-03T07:28:10;100436.00;;;4.05;70.56
64294;BME280;50636;45.596;5.258;2023-02-03T07:30:36;100439.22;;;4.53;69.43
64294;BME280;50636;45.596;5.258;2023-02-03T07:33:01;100432.88;;;5.24;66.57
64294;BME280;50636;45.596;5.258;2023-02-03T07:35:27;100433.06;;;5.96;63.83
64294;BME280;50636;45.596;5.258;2023-02-03T07:37:53;100431.84;;;6.22;61.37
64294;BME280;50636;45.596;5.258;2023-02-03T07:40:19;100434.06;;;6.05;60.94
64294;BME280;50636;45.596;5.258;2023-02-03T07:42:46;100438.03;;;5.67;60.86
64294;BME280;50636;45.596;5.258;2023-02-03T07:45:14;100440.50;;;5.48;62.29
64294;BME280;50636;45.596;5.258;2023-02-03T07:47:41;100438.69;;;5.80;62.81
64294;BME280;50636;45.596;5.258;2023-02-03T07:50:08;100438.81;;;6.42;61.51
64294;BME280;50636;45.596;5.258;2023-02-03T07:52:34;100427.25;;;7.35;59.93
64294;BME280;50636;45.596;5.258;2023-02-03T07:55:00;100429.72;;;8.05;56.35
64294;BME280;50636;45.596;5.258;2023-02-03T07:57:26;100427.72;;;8.74;53.91
64294;BME280;50636;45.596;5.258;2023-02-03T07:59:51;100425.88;;;9.48;52.84
64294;BME280;50636;45.596;5.258;2023-02-03T08:02:17;100423.16;;;10.02;52.04
64294;BME280;50636;45.596;5.258;2023-02-03T08:04:42;100415.59;;;10.43;50.44
64294;BME280;50636;45.596;5.258;2023-02-03T08:07:08;100409.00;;;10.81;48.92
64294;BME280;50636;45.596;5.258;2023-02-03T08:09:34;100405.50;;;11.23;46.64
64294;BME280;50636;45.596;5.258;2023-02-03T08:11:59;100402.69;;;11.25;46.06
64294;BME280;50636;45.596;5.258;2023-02-03T08:14:25;100416.03;;;11.39;45.95
64294;BME280;50636;45.596;5.258;2023-02-03T08:16:50;100423.31;;;10.87;46.48
64294;BME280;50636;45.596;5.258;2023-02-03T08:19:16;100430.16;;;10.37;48.02
64294;BME280;50636;45.596;5.258;2023-02-03T08:21:41;100426.31;;;10.57;48.89
64294;BME280;50636;45.596;5.258;2023-02-03T08:24:07;100429.06;;;10.90;48.11
64294;BME280;50636;45.596;5.258;2023-02-03T08:26:35;100441.97;;;11.26;48.04
64294;BME280;50636;45.596;5.258;2023-02-03T08:29:01;100440.53;;;11.56;47.27
64294;BME280;50636;45.596;5.258;2023-02-03T08:31:28;100446.78;;;11.80;47.01
64294;BME280;50636;45.596;5.258;2023-02-03T08:33:53;100444.97;;;12.22;46.05
64294;BME280;50636;45.596;5.258;2023-02-03T08:36:19;100449.97;;;12.64;43.73
64294;BME280;50636;45.596;5.258;2023-02-03T08:38:44;100439.66;;;13.17;42.88
64294;BME280;50636;45.596;5.258;2023-02-03T08:41:12;100445.97;;;13.62;42.37
64294;BME280;50636;45.596;5.258;2023-02-03T08:43:39;100450.47;;;14.14;41.46
64294;BME280;50636;45.596;5.258;2023-02-03T08:46:07;100444.16;;;14.83;40.42
64294;BME280;50636;45.596;5.258;2023-02-03T08:48:33;100445.38;;;15.60;38.61
64294;BME280;50636;45.596;5.258;2023-02-03T08:50:59;100440.59;;;15.92;37.11
64294;BME280;50636;45.596;5.258;2023-02-03T08:53:25;100447.97;;;16.66;36.37
64294;BME280;50636;45.596;5.258;2023-02-03T08:55:51;100448.03;;;17.48;35.57
64294;BME280;50636;45.596;5.258;2023-02-03T08:58:17;100444.41;;;18.22;34.36
64294;BME280;50636;45.596;5.258;2023-02-03T09:00:42;100444.06;;;18.70;33.32
64294;BME280;50636;45.596;5.258;2023-02-03T09:03:08;100445.94;;;19.15;32.29
64294;BME280;50636;45.596;5.258;2023-02-03T09:05:34;100437.59;;;19.05;31.79
64294;BME280;50636;45.596;5.258;2023-02-03T09:08:00;100437.69;;;19.23;31.67
64294;BME280;50636;45.596;5.258;2023-02-03T09:10:25;100441.88;;;19.76;31.38
64294;BME280;50636;45.596;5.258;2023-02-03T09:12:51;100438.16;;;20.02;30.38
64294;BME280;50636;45.596;5.258;2023-02-03T09:15:17;100437.47;;;19.88;29.91
64294;BME280;50636;45.596;5.258;2023-02-03T09:17:42;100445.00;;;19.91;30.22
64294;BME280;50636;45.596;5.258;2023-02-03T09:20:08;100445.72;;;20.05;30.42
64294;BME280;50636;45.596;5.258;2023-02-03T09:22:34;100447.47;;;20.37;29.21
64294;BME280;50636;45.596;5.258;2023-02-03T09:25:00;100449.97;;;20.50;29.99
64294;BME280;50636;45.596;5.258;2023-02-03T09:27:25;100447.34;;;21.17;29.81
64294;BME280;50636;45.596;5.258;2023-02-03T09:29:51;100458.66;;;21.85;28.48
64294;BME280;50636;45.596;5.258;2023-02-03T09:32:16;100458.00;;;22.25;28.20
64294;BME280;50636;45.596;5.258;2023-02-03T09:34:42;100460.41;;;22.62;27.55
64294;BME280;50636;45.596;5.258;2023-02-03T09:37:08;100460.75;;;23.06;26.92
64294;BME280;50636;45.596;5.258;2023-02-03T09:39:34;100466.91;;;23.35;26.18
64294;BME280;50636;45.596;5.258;2023-02-03T09:42:21;100462.91;;;23.66;26.65
64294;BME280;50636;45.596;5.258;2023-02-03T09:47:28;100455.16;;;24.21;25.62
64294;BME280;50636;45.596;5.258;2023-02-03T09:49:59;100451.13;;;24.01;25.33
64294;BME280;50636;45.596;5.258;2023-02-03T09:52:31;100441.28;;;23.90;26.00
64294;BME280;50636;45.596;5.258;2023-02-03T09:57:34;100456.72;;;24.39;25.71
64294;BME280;50636;45.596;5.258;2023-02-03T10:00:13;100459.66;;;24.37;25.62
64294;BME280;50636;45.596;5.258;2023-02-03T10:02:54;100456.44;;;24.18;25.53
64294;BME280;50636;45.596;5.258;2023-02-03T10:05:56;100446.66;;;23.90;26.07
64294;BME280;50636;45.596;5.258;2023-02-03T10:11:21;100447.97;;;23.25;26.41
64294;BME280;50636;45.596;5.258;2023-02-03T10:17:18;100444.28;;;23.77;26.19
64294;BME280;50636;45.596;5.258;2023-02-03T10:19:51;100444.72;;;24.63;25.04
64294;BME280;50636;45.596;5.258;2023-02-03T10:22:22;100442.88;;;24.91;24.74
64294;BME280;50636;45.596;5.258;2023-02-03T10:25:03;100448.94;;;25.03;24.90
64294;BME280;50636;45.596;5.258;2023-02-03T10:27:31;100449.13;;;24.97;25.01
64294;BME280;50636;45.596;5.258;2023-02-03T10:30:24;100442.00;;;25.07;24.24
64294;BME280;50636;45.596;5.258;2023-02-03T10:32:53;100443.16;;;25.44;23.43
64294;BME280;50636;45.596;5.258;2023-02-03T10:35:35;100436.06;;;25.65;22.72
64294;BME280;50636;45.596;5.258;2023-02-03T10:38:09;100445.88;;;25.81;21.95
64294;BME280;50636;45.596;5.258;2023-02-03T10:40:39;100443.81;;;25.94;22.92
64294;BME280;50636;45.596;5.258;2023-02-03T10:43:06;100438.34;;;26.21;22.32
64294;BME280;50636;45.596;5.258;2023-02-03T10:45:51;100431.72;;;26.44;22.00
64294;BME280;50636;45.596;5.258;2023-02-03T10:48:17;100435.75;;;26.36;21.76
64294;BME280;50636;45.596;5.258;2023-02-03T10:50:47;100433.97;;;26.09;21.46
64294;BME280;50636;45.596;5.258;2023-02-03T10:55:43;100417.69;;;25.51;21.21
64294;BME280;50636;45.596;5.258;2023-02-03T10:58:20;100417.00;;;25.34;21.80
64294;BME280;50636;45.596;5.258;2023-02-03T11:01:02;100416.53;;;25.15;21.98
64294;BME280;50636;45.596;5.258;2023-02-03T11:03:28;100423.47;;;24.84;22.36
64294;BME280;50636;45.596;5.258;2023-02-03T11:06:07;100422.41;;;24.02;23.26
64294;BME280;50636;45.596;5.258;2023-02-03T11:08:35;100432.53;;;23.32;23.87
64294;BME280;50636;45.596;5.258;2023-02-03T11:11:03;100421.81;;;22.86;24.90
64294;BME280;50636;45.596;5.258;2023-02-03T11:13:29;100421.69;;;22.81;25.40
64294;BME280;50636;45.596;5.258;2023-02-03T11:19:15;100406.03;;;23.30;24.42
64294;BME280;50636;45.596;5.258;2023-02-03T11:21:45;100409.34;;;22.92;24.67
64294;BME280;50636;45.596;5.258;2023-02-03T11:27:03;100411.78;;;22.41;25.31
64294;BME280;50636;45.596;5.258;2023-02-03T11:29:33;100407.41;;;22.35;24.76
64294;BME280;50636;45.596;5.258;2023-02-03T11:32:21;100406.94;;;22.38;25.03
64294;BME280;50636;45.596;5.258;2023-02-03T11:37:40;100405.41;;;22.42;25.21
64294;BME280;50636;45.596;5.258;2023-02-03T11:42:35;100403.94;;;21.76;25.53
64294;BME280;50636;45.596;5.258;2023-02-03T11:47:51;100389.59;;;21.46;25.85
64294;BME280;50636;45.596;5.258;2023-02-03T11:50:40;100403.81;;;20.49;27.05
64294;BME280;50636;45.596;5.258;2023-02-03T11:53:16;100400.50;;;21.03;27.25
64294;BME280;50636;45.596;5.258;2023-02-03T12:01:53;100406.09;;;18.50;30.31
64294;BME280;50636;45.596;5.258;2023-02-03T12:04:45;100403.22;;;18.51;30.36
64294;BME280;50636;45.596;5.258;2023-02-03T12:07:43;100408.03;;;18.09;30.04
64294;BME280;50636;45.596;5.258;2023-02-03T12:18:48;100385.72;;;19.21;29.71
64294;BME280;50636;45.596;5.258;2023-02-03T12:21:50;100364.81;;;20.37;28.38
64294;BME280;50636;45.596;5.258;2023-02-03T12:29:58;100354.72;;;20.02;30.11
64294;BME280;50636;45.596;5.258;2023-02-03T12:32:31;100359.75;;;19.91;29.35
64294;BME280;50636;45.596;5.258;2023-02-03T12:35:11;100360.94;;;19.95;29.29
64294;BME280;50636;45.596;5.258;2023-02-03T12:37:57;100356.88;;;20.11;28.99
64294;BME280;50636;45.596;5.258;2023-02-03T12:40:43;100349.03;;;19.23;29.27
64294;BME280;50636;45.596;5.258;2023-02-03T12:45:37;100339.59;;;17.05;32.47
64294;BME280;50636;45.596;5.258;2023-02-03T12:48:10;100337.91;;;16.84;33.53
64294;BME280;50636;45.596;5.258;2023-02-03T12:50:44;100333.50;;;17.91;32.17
64294;BME280;50636;45.596;5.258;2023-02-03T12:55:57;100313.84;;;19.71;28.90
64294;BME280;50636;45.596;5.258;2023-02-03T12:58:37;100309.19;;;19.60;28.55
64294;BME280;50636;45.596;5.258;2023-02-03T13:01:27;100316.31;;;19.15;29.88
64294;BME280;50636;45.596;5.258;2023-02-03T13:04:22;100323.09;;;19.18;30.37
64294;BME280;50636;45.596;5.258;2023-02-03T13:07:11;100320.78;;;19.47;29.10
64294;BME280;50636;45.596;5.258;2023-02-03T13:12:40;100309.31;;;18.58;30.34
64294;BME280;50636;45.596;5.258;2023-02-03T13:15:38;100307.22;;;18.66;30.62
64294;BME280;50636;45.596;5.258;2023-02-03T13:18:25;100299.53;;;19.15;29.90
64294;BME280;50636;45.596;5.258;2023-02-03T13:20:54;100300.47;;;19.27;29.59
64294;BME280;50636;45.596;5.258;2023-02-03T13:23:20;100302.13;;;19.28;29.48
64294;BME280;50636;45.596;5.258;2023-02-03T13:37:11;100287.03;;;18.13;31.53
64294;BME280;50636;45.596;5.258;2023-02-03T13:40:02;100287.28;;;17.92;31.61
64294;BME280;50636;45.596;5.258;2023-02-03T13:42:32;100281.16;;;17.85;32.17
64294;BME280;50636;45.596;5.258;2023-02-03T13:45:17;100271.78;;;17.89;31.71
64294;BME280;50636;45.596;5.258;2023-02-03T13:47:51;100264.00;;;17.94;32.18
64294;BME280;50636;45.596;5.258;2023-02-03T13:50:24;100258.59;;;18.14;31.76
64294;BME280;50636;45.596;5.258;2023-02-03T13:53:00;100267.66;;;18.00;31.91
64294;BME280;50636;45.596;5.258;2023-02-03T13:55:38;100268.91;;;17.90;32.09
64294;BME280;50636;45.596;5.258;2023-02-03T13:58:18;100265.63;;;17.88;32.38
64294;BME280;50636;45.596;5.258;2023-02-03T14:04:02;100283.47;;;17.48;32.66
64294;BME280;50636;45.596;5.258;2023-02-03T14:06:03;100289.41;;;17.10;32.96
64294;BME280;50636;45.596;5.258;2023-02-03T14:16:46;100279.84;;;15.86;34.98
64294;BME280;50636;45.596;5.258;2023-02-03T14:22:04;100284.00;;;15.17;35.95
64294;BME280;50636;45.596;5.258;2023-02-03T14:24:34;100284.34;;;14.86;36.85
64294;BME280;50636;45.596;5.258;2023-02-03T14:27:04;100287.47;;;14.74;37.14
64294;BME280;50636;45.596;5.258;2023-02-03T14:29:33;100278.69;;;14.52;37.47
64294;BME280;50636;45.596;5.258;2023-02-03T14:32:06;100275.53;;;14.42;37.71
64294;BME280;50636;45.596;5.258;2023-02-03T14:34:34;100273.91;;;14.41;37.76
64294;BME280;50636;45.596;5.258;2023-02-03T14:37:15;100268.63;;;14.26;38.40
64294;BME280;50636;45.596;5.258;2023-02-03T14:54:15;100271.41;;;13.58;39.77
64294;BME280;50636;45.596;5.258;2023-02-03T15:02:10;100262.09;;;13.48;40.83
64294;BME280;50636;45.596;5.258;2023-02-03T15:04:36;100270.53;;;13.66;40.44
64294;BME280;50636;45.596;5.258;2023-02-03T15:07:01;100263.13;;;13.62;40.52
64294;BME280;50636;45.596;5.258;2023-02-03T15:09:36;100265.59;;;13.48;40.31
64294;BME280;50636;45.596;5.258;2023-02-03T15:12:17;100264.63;;;13.26;40.87
64294;BME280;50636;45.596;5.258;2023-02-03T15:14:43;100266.31;;;13.19;41.35
64294;BME280;50636;45.596;5.258;2023-02-03T15:17:22;100274.47;;;13.32;42.47
64294;BME280;50636;45.596;5.258;2023-02-03T15:19:49;100265.75;;;13.47;41.49
64294;BME280;50636;45.596;5.258;2023-02-03T15:22:23;100269.63;;;13.36;41.27
64294;BME280;50636;45.596;5.258;2023-02-03T15:24:52;100271.19;;;13.30;40.94